Time;durP1;ratioP1;P1;durP2;ratioP2;P2;SDS_P1;SDS_P2;PMS_P1;PMS_P2;Temp;Humidity;BMP_temperature;BMP_pressure;BME280_temperature;BME280_humidity;BME280_pressure;Samples;Min_cycle;Max_cycle;Signal;HPM_P1;HPM_P2
2022/03/23 00:00:36;;;;;;;56.63;39.58;;;6.80;99.90;;;;;;4956098;28;20046;-81
2022/03/23 00:03:03;;;;;;;55.80;38.83;;;6.80;99.90;;;;;;4940142;28;20389;-81
2022/03/23 00:05:29;;;;;;;60.70;41.85;;;6.80;99.90;;;;;;4956741;28;20045;-81
2022/03/23 00:07:55;;;;;;;63.25;41.90;;;6.70;99.90;;;;;;4957296;28;20039;-81
2022/03/23 00:10:21;;;;;;;57.40;40.33;;;6.70;99.90;;;;;;4941333;28;20557;-81
2022/03/23 00:12:46;;;;;;;60.47;41.45;;;6.70;99.90;;;;;;4956973;28;20125;-81
2022/03/23 00:15:12;;;;;;;71.47;47.35;;;6.70;99.90;;;;;;4959326;28;20053;-81
2022/03/23 00:17:39;;;;;;;61.80;42.65;;;6.70;99.90;;;;;;4966377;28;20043;-81
2022/03/23 00:20:06;;;;;;;56.95;40.15;;;6.70;99.90;;;;;;4957141;28;20053;-81
2022/03/23 00:22:31;;;;;;;54.95;39.30;;;6.70;99.90;;;;;;4948196;28;20454;-81
2022/03/23 00:24:57;;;;;;;57.20;42.13;;;6.70;99.90;;;;;;4956749;28;20054;-81
2022/03/23 00:27:23;;;;;;;66.07;43.47;;;6.70;99.90;;;;;;4957248;28;20544;-82
2022/03/23 00:29:49;;;;;;;57.50;39.60;;;6.70;99.90;;;;;;4954357;28;20038;-81
2022/03/23 00:32:15;;;;;;;54.67;38.85;;;6.70;99.90;;;;;;4955144;28;20490;-81
2022/03/23 00:34:41;;;;;;;56.35;39.95;;;6.70;99.90;;;;;;4961196;28;20042;-81
2022/03/23 00:37:06;;;;;;;56.03;41.65;;;6.60;99.90;;;;;;4960739;28;20125;-81
2022/03/23 00:39:32;;;;;;;54.05;39.13;;;6.60;99.90;;;;;;4959453;28;20046;-82
2022/03/23 00:41:58;;;;;;;56.85;40.42;;;6.70;99.90;;;;;;4960237;28;20039;-82
2022/03/23 00:44:24;;;;;;;56.63;39.03;;;6.60;99.90;;;;;;4960092;28;20031;-82
2022/03/23 00:46:49;;;;;;;58.28;40.97;;;6.50;99.90;;;;;;4960260;28;20034;-80
2022/03/23 00:49:15;;;;;;;53.22;38.22;;;6.50;99.90;;;;;;4943885;28;20512;-81
2022/03/23 00:51:41;;;;;;;61.35;41.35;;;6.40;99.90;;;;;;4960488;28;20082;-81
2022/03/23 00:54:09;;;;;;;64.43;43.42;;;6.40;99.90;;;;;;4944304;28;20554;-81
2022/03/23 00:56:37;;;;;;;62.65;41.10;;;6.30;99.90;;;;;;4960295;28;20051;-81
2022/03/23 00:59:03;;;;;;;63.60;44.20;;;6.30;99.90;;;;;;4944570;28;20138;-81
2022/03/23 01:01:30;;;;;;;64.28;43.63;;;6.30;99.90;;;;;;4957992;28;20039;-82
2022/03/23 01:03:55;;;;;;;62.80;42.78;;;6.30;99.90;;;;;;4956709;28;20073;-81
2022/03/23 01:06:21;;;;;;;60.45;41.90;;;6.30;99.90;;;;;;4944602;28;20496;-81
2022/03/23 01:08:46;;;;;;;60.42;42.05;;;6.30;99.90;;;;;;4955762;28;20074;-81
2022/03/23 01:11:12;;;;;;;63.67;42.22;;;6.20;99.90;;;;;;4960498;28;20078;-81
2022/03/23 01:13:37;;;;;;;59.38;41.42;;;6.20;99.90;;;;;;4960420;28;20042;-82
2022/03/23 01:16:05;;;;;;;59.22;41.97;;;6.10;99.90;;;;;;4955318;28;20070;-81
2022/03/23 01:18:31;;;;;;;60.88;42.63;;;6.20;99.90;;;;;;4959641;28;20047;-82
2022/03/23 01:20:57;;;;;;;62.08;43.50;;;6.10;99.90;;;;;;4943924;28;20121;-81
2022/03/23 01:23:23;;;;;;;63.13;44.17;;;6.10;99.90;;;;;;4960216;28;20162;-82
2022/03/23 01:25:48;;;;;;;70.72;47.70;;;6.00;99.90;;;;;;4959801;28;20041;-81
2022/03/23 01:28:14;;;;;;;70.93;47.10;;;5.90;99.90;;;;;;4960047;28;20039;-81
2022/03/23 01:30:40;;;;;;;72.57;47.72;;;5.90;99.90;;;;;;4943393;28;20043;-81
2022/03/23 01:33:05;;;;;;;72.57;48.30;;;5.90;99.90;;;;;;4957850;28;20795;-82
2022/03/23 01:35:31;;;;;;;70.20;47.88;;;5.80;99.90;;;;;;4959598;28;20544;-82
2022/03/23 01:37:56;;;;;;;67.03;46.35;;;5.70;99.90;;;;;;4959592;28;20038;-82
2022/03/23 01:40:22;;;;;;;68.40;45.53;;;5.80;99.90;;;;;;4943825;28;20042;-82
2022/03/23 01:42:48;;;;;;;66.20;44.40;;;5.70;99.90;;;;;;4958213;28;20061;-82
2022/03/23 01:45:14;;;;;;;65.88;43.85;;;5.70;99.90;;;;;;4959704;28;20109;-82
2022/03/23 01:47:40;;;;;;;66.75;43.80;;;5.70;99.90;;;;;;4959399;28;20043;-82
2022/03/23 01:50:08;;;;;;;63.30;44.08;;;5.70;99.90;;;;;;4949843;28;20090;-82
2022/03/23 01:52:33;;;;;;;69.18;44.97;;;5.60;99.90;;;;;;4943748;28;20043;-82
2022/03/23 01:55:01;;;;;;;66.40;45.10;;;5.60;99.90;;;;;;4943064;28;20050;-82
2022/03/23 01:57:28;;;;;;;67.85;44.45;;;5.50;99.90;;;;;;4960074;28;20058;-82
2022/03/23 01:59:53;;;;;;;78.18;51.05;;;5.60;99.90;;;;;;4959595;28;20445;-82
2022/03/23 02:02:19;;;;;;;75.50;50.03;;;5.50;99.90;;;;;;4941327;28;20042;-82
2022/03/23 02:04:45;;;;;;;70.78;46.92;;;5.40;99.90;;;;;;4959253;28;20047;-82
2022/03/23 02:07:10;;;;;;;74.88;48.65;;;5.40;99.90;;;;;;4955746;28;20039;-82
2022/03/23 02:09:36;;;;;;;72.32;48.22;;;5.40;99.90;;;;;;4959315;28;20050;-82
2022/03/23 02:12:05;;;;;;;68.90;46.35;;;5.30;99.90;;;;;;4958944;28;20051;-82
2022/03/23 02:14:31;;;;;;;72.22;45.80;;;5.30;99.90;;;;;;4959014;28;20043;-82
2022/03/23 02:16:56;;;;;;;71.20;47.50;;;5.20;99.90;;;;;;4959728;28;20042;-82
2022/03/23 02:19:22;;;;;;;61.78;42.53;;;5.30;99.90;;;;;;4958989;28;20109;-82
2022/03/23 02:21:49;;;;;;;62.67;42.90;;;5.30;99.90;;;;;;4955343;29;20407;-82
2022/03/23 02:24:16;;;;;;;63.22;41.25;;;5.30;99.90;;;;;;4944155;29;20062;-82
2022/03/23 02:26:42;;;;;;;57.47;41.58;;;5.20;99.90;;;;;;4952455;29;20489;-82
2022/03/23 02:29:09;;;;;;;63.17;41.83;;;5.20;99.90;;;;;;4940163;29;20082;-82
2022/03/23 02:31:35;;;;;;;65.13;44.33;;;5.20;99.90;;;;;;4955330;29;20035;-82
2022/03/23 02:34:01;;;;;;;58.38;41.63;;;5.20;99.90;;;;;;4955729;29;20174;-82
2022/03/23 02:36:27;;;;;;;65.57;43.45;;;5.20;99.90;;;;;;4959606;23;20101;-82
2022/03/23 02:38:53;;;;;;;66.55;43.75;;;5.10;99.90;;;;;;4950695;29;20683;-89
2022/03/23 02:41:19;;;;;;;73.28;47.63;;;5.20;99.90;;;;;;4956117;28;20040;-88
2022/03/23 02:43:44;;;;;;;70.68;46.28;;;5.10;99.90;;;;;;4931635;29;20052;-89
2022/03/23 02:46:15;;;;;;;74.82;48.90;;;5.10;99.90;;;;;;4951188;29;20415;-89
2022/03/23 02:48:42;;;;;;;67.63;45.50;;;5.00;99.90;;;;;;4955849;29;20425;-88
2022/03/23 02:51:08;;;;;;;68.97;47.15;;;5.00;99.90;;;;;;4939640;29;20077;-89
2022/03/23 03:02:28;;;;;;;67.25;45.75;;;5.00;99.90;;;;;;4951987;29;20049;-88
2022/03/23 03:04:54;;;;;;;66.85;45.72;;;4.90;99.90;;;;;;4954746;29;20382;-88
2022/03/23 03:07:19;;;;;;;64.95;45.25;;;5.00;99.90;;;;;;4954598;29;20070;-88
2022/03/23 03:09:45;;;;;;;66.18;44.83;;;4.90;99.90;;;;;;4953977;29;20063;-88
2022/03/23 03:12:12;;;;;;;66.80;44.35;;;4.80;99.90;;;;;;4935267;29;20039;-88
2022/03/23 03:14:38;;;;;;;67.15;44.92;;;4.90;99.90;;;;;;4956519;29;20054;-87
2022/03/23 03:17:05;;;;;;;64.00;44.65;;;4.80;99.90;;;;;;4956500;29;20047;-88
2022/03/23 03:19:30;;;;;;;64.85;43.70;;;4.80;99.90;;;;;;4934227;29;20074;-88
2022/03/23 03:21:56;;;;;;;64.65;42.08;;;4.80;99.90;;;;;;4938865;29;20079;-89
2022/03/23 03:24:22;;;;;;;67.53;44.25;;;4.80;99.90;;;;;;4956367;29;20113;-89
2022/03/23 03:26:48;;;;;;;74.60;46.88;;;4.70;99.90;;;;;;4941995;29;20587;-88
2022/03/23 03:29:14;;;;;;;65.10;44.55;;;4.70;99.90;;;;;;4938364;29;20044;-88
2022/03/23 03:31:40;;;;;;;71.18;46.65;;;4.70;99.90;;;;;;4953509;29;20039;-88
2022/03/23 03:34:06;;;;;;;68.60;46.88;;;4.60;99.90;;;;;;4950070;29;20061;-88
2022/03/23 03:36:31;;;;;;;64.78;44.97;;;4.70;99.90;;;;;;4955257;28;20122;-88
2022/03/23 03:38:57;;;;;;;68.82;46.33;;;4.60;99.90;;;;;;4955170;29;20107;-89
2022/03/23 03:41:23;;;;;;;68.03;44.28;;;4.60;99.90;;;;;;4954665;29;20090;-89
2022/03/23 03:43:51;;;;;;;67.57;46.95;;;4.60;99.90;;;;;;4934890;29;20044;-89
2022/03/23 03:46:17;;;;;;;77.00;47.88;;;4.60;99.90;;;;;;4938342;29;20082;-88
2022/03/23 03:48:42;;;;;;;72.00;47.67;;;4.50;99.90;;;;;;4951425;28;20039;-88
2022/03/23 03:51:09;;;;;;;74.18;48.00;;;4.50;99.90;;;;;;4953959;29;20707;-89
2022/03/23 03:53:35;;;;;;;71.45;45.42;;;4.50;99.90;;;;;;4954029;29;20122;-88
2022/03/23 03:56:01;;;;;;;71.45;47.35;;;4.50;99.90;;;;;;4954523;29;20138;-88
2022/03/23 03:58:27;;;;;;;71.03;46.42;;;4.50;99.90;;;;;;4953907;29;20525;-88
2022/03/23 04:00:52;;;;;;;71.35;47.20;;;4.50;99.90;;;;;;4947687;28;20097;-89
2022/03/23 04:03:19;;;;;;;66.68;46.47;;;4.40;99.90;;;;;;4937463;29;20031;-88
2022/03/23 04:05:44;;;;;;;70.28;46.25;;;4.50;99.90;;;;;;4953527;28;20367;-88
2022/03/23 04:08:10;;;;;;;70.18;47.33;;;4.40;99.90;;;;;;4954219;29;20171;-88
2022/03/23 04:10:36;;;;;;;67.75;44.97;;;4.40;99.90;;;;;;4954408;29;20047;-89
2022/03/23 04:13:02;;;;;;;61.08;43.47;;;4.40;99.90;;;;;;4954229;29;20051;-89
2022/03/23 04:15:28;;;;;;;63.70;42.25;;;4.50;99.90;;;;;;4953852;29;20499;-88
2022/03/23 04:17:54;;;;;;;61.15;43.15;;;4.50;99.90;;;;;;4951622;29;20043;-89
2022/03/23 04:20:21;;;;;;;60.13;41.42;;;4.40;99.90;;;;;;4954279;29;20039;-89
2022/03/23 04:22:46;;;;;;;64.22;44.10;;;4.40;99.90;;;;;;4953356;29;20548;-89
2022/03/23 04:25:14;;;;;;;59.05;41.85;;;4.40;99.90;;;;;;4953838;29;20130;-89
2022/03/23 04:27:54;;;;;;;67.20;44.42;;;4.30;99.90;;;;;;4954017;29;20512;-89
2022/03/23 04:30:21;;;;;;;61.55;43.92;;;4.30;99.90;;;;;;4938189;29;20078;-89
2022/03/23 04:32:49;;;;;;;65.85;45.00;;;4.30;99.90;;;;;;4954087;29;20066;-89
2022/03/23 04:35:15;;;;;;;63.22;43.40;;;4.20;99.90;;;;;;4952306;28;20452;-88
2022/03/23 04:37:42;;;;;;;61.80;43.05;;;4.20;99.90;;;;;;4947917;29;20109;-89
2022/03/23 04:40:09;;;;;;;58.25;41.15;;;4.20;99.90;;;;;;4946289;29;20048;-89
2022/03/23 04:42:40;;;;;;;59.20;42.90;;;4.20;99.90;;;;;;4952981;29;20043;-89
2022/03/23 04:45:06;;;;;;;65.10;41.72;;;4.10;99.90;;;;;;4950956;29;20043;-89
2022/03/23 04:47:33;;;;;;;59.25;40.55;;;4.20;99.90;;;;;;4951890;29;20051;-89
2022/03/23 04:50:03;;;;;;;63.53;42.15;;;4.10;99.90;;;;;;4937989;29;20040;-89
2022/03/23 04:52:30;;;;;;;61.22;42.53;;;4.00;99.90;;;;;;4951628;29;20043;-89
2022/03/23 04:54:56;;;;;;;63.60;44.78;;;3.90;99.90;;;;;;4953953;29;20047;-88
2022/03/23 04:57:28;;;;;;;61.80;42.88;;;3.90;99.90;;;;;;4953880;29;20497;-89
2022/03/23 04:59:54;;;;;;;58.92;42.13;;;3.90;99.90;;;;;;4953932;29;20078;-89
2022/03/23 05:02:20;;;;;;;56.47;40.65;;;3.90;99.90;;;;;;4937754;29;20071;-89
2022/03/23 05:04:46;;;;;;;54.63;39.10;;;3.80;99.90;;;;;;4937081;29;20082;-89
2022/03/23 05:07:13;;;;;;;56.17;39.83;;;3.80;99.90;;;;;;4954790;29;20044;-89
2022/03/23 05:09:39;;;;;;;52.92;38.72;;;3.80;99.90;;;;;;4954490;28;20146;-89
2022/03/23 05:12:05;;;;;;;52.17;37.70;;;3.70;99.90;;;;;;4949738;29;20070;-89
2022/03/23 05:14:31;;;;;;;44.83;35.08;;;3.90;99.90;;;;;;4937578;29;20397;-88
2022/03/23 05:16:57;;;;;;;52.88;37.53;;;3.80;99.90;;;;;;4951580;28;20351;-89
2022/03/23 05:19:22;;;;;;;67.82;42.70;;;3.90;99.90;;;;;;4956855;29;20039;-89
2022/03/23 05:21:48;;;;;;;61.17;41.53;;;3.80;99.90;;;;;;4957017;29;20039;-89
2022/03/23 05:24:14;;;;;;;48.28;36.20;;;3.70;99.90;;;;;;4940960;29;20470;-89
2022/03/23 05:26:39;;;;;;;48.55;35.70;;;3.70;99.90;;;;;;4956574;29;20126;-90
2022/03/23 05:29:05;;;;;;;46.88;36.83;;;3.80;99.90;;;;;;4940784;29;20517;-89
2022/03/23 05:31:31;;;;;;;49.95;34.80;;;3.80;99.90;;;;;;4958208;29;20212;-89
2022/03/23 05:33:56;;;;;;;44.90;34.50;;;3.80;99.90;;;;;;4940748;29;20051;-89
2022/03/23 05:36:22;;;;;;;47.83;33.97;;;3.80;99.90;;;;;;4956341;29;20051;-89
2022/03/23 05:38:47;;;;;;;56.88;38.22;;;3.90;99.90;;;;;;4940402;29;20055;-89
2022/03/23 05:41:13;;;;;;;53.72;37.88;;;3.80;99.90;;;;;;4954829;29;20643;-88
2022/03/23 05:43:38;;;;;;;51.42;37.35;;;3.70;99.90;;;;;;4941345;29;20458;-88
2022/03/23 05:46:04;;;;;;;51.72;36.90;;;3.90;99.90;;;;;;4945944;29;20127;-88
2022/03/23 05:48:30;;;;;;;48.58;36.42;;;3.80;99.90;;;;;;4948879;29;20528;-88
2022/03/23 05:50:56;;;;;;;49.28;36.40;;;3.70;99.90;;;;;;4956059;29;20054;-88
2022/03/23 05:53:21;;;;;;;49.08;36.45;;;3.80;99.90;;;;;;4957622;28;20417;-89
2022/03/23 05:55:47;;;;;;;55.95;35.35;;;3.80;99.90;;;;;;4952067;29;20613;-89
2022/03/23 05:58:12;;;;;;;44.60;33.75;;;3.90;99.90;;;;;;4939874;29;20047;-89
2022/03/23 06:00:38;;;;;;;47.58;34.70;;;3.90;99.90;;;;;;4937751;29;20054;-89
2022/03/23 06:03:04;;;;;;;46.55;33.72;;;4.00;99.90;;;;;;4939511;29;20043;-88
2022/03/23 06:05:29;;;;;;;50.03;36.28;;;4.00;99.90;;;;;;4954710;29;20401;-88
2022/03/23 06:07:55;;;;;;;47.97;35.45;;;4.10;99.90;;;;;;4950950;29;20082;-88
2022/03/23 06:10:20;;;;;;;50.97;36.13;;;4.20;99.90;;;;;;4954099;29;20075;-88
2022/03/23 06:12:46;;;;;;;50.03;35.72;;;4.40;99.90;;;;;;4939671;29;20046;-88
2022/03/23 06:15:11;;;;;;;55.95;38.63;;;4.40;99.90;;;;;;4954907;29;20509;-89
2022/03/23 06:17:37;;;;;;;50.65;36.65;;;4.50;99.90;;;;;;4954361;29;20043;-89
2022/03/23 06:20:05;;;;;;;50.50;37.22;;;4.70;99.90;;;;;;4955296;29;20043;-88
2022/03/23 06:22:31;;;;;;;50.03;37.03;;;5.00;99.90;;;;;;4949532;28;20106;-88
2022/03/23 06:24:56;;;;;;;46.45;35.75;;;5.50;99.90;;;;;;4935713;29;20082;-88
2022/03/23 06:27:22;;;;;;;48.58;36.40;;;5.80;99.90;;;;;;4954515;28;20055;-89
2022/03/23 06:29:48;;;;;;;45.67;35.88;;;6.00;99.90;;;;;;4939699;29;20090;-89
2022/03/23 06:32:14;;;;;;;45.95;34.17;;;6.50;99.90;;;;;;4955594;29;20051;-89
2022/03/23 06:34:40;;;;;;;45.47;35.75;;;7.10;99.90;;;;;;4935078;29;20039;-89
2022/03/23 06:37:06;;;;;;;42.70;33.40;;;7.80;99.90;;;;;;4955377;29;20051;-89
2022/03/23 06:39:32;;;;;;;39.72;31.33;;;8.30;99.90;;;;;;4947093;29;20130;-89
2022/03/23 06:41:58;;;;;;;37.90;30.55;;;9.00;99.90;;;;;;4937305;29;20047;-89
2022/03/23 06:44:24;;;;;;;42.20;31.25;;;9.50;99.90;;;;;;4954960;29;20066;-89
2022/03/23 06:46:50;;;;;;;39.67;32.22;;;10.00;99.90;;;;;;4944607;29;20142;-89
2022/03/23 06:49:16;;;;;;;42.45;34.00;;;10.50;99.90;;;;;;4938539;29;20054;-89
2022/03/23 06:51:42;;;;;;;44.50;35.58;;;10.80;99.90;;;;;;4956683;29;20051;-89
2022/03/23 06:54:08;;;;;;;57.38;44.85;;;11.30;99.90;;;;;;4938991;29;20039;-89
2022/03/23 06:56:34;;;;;;;59.05;44.70;;;11.70;99.90;;;;;;4939045;29;20050;-89
2022/03/23 06:58:59;;;;;;;56.60;45.25;;;12.20;99.90;;;;;;4953573;29;20046;-89
2022/03/23 07:01:25;;;;;;;53.97;43.50;;;12.50;99.90;;;;;;4954589;29;20497;-88
2022/03/23 07:03:50;;;;;;;53.30;42.22;;;12.80;99.90;;;;;;4948530;29;20039;-89
2022/03/23 07:06:16;;;;;;;50.33;43.00;;;13.60;99.90;;;;;;4947450;29;20503;-89
2022/03/23 07:11:29;;;;;;;50.67;42.88;;;14.50;98.30;;;;;;4954121;29;20046;-88
2022/03/23 07:13:56;;;;;;;56.92;44.28;;;14.60;98.00;;;;;;4954849;29;20086;-88
2022/03/23 07:16:21;;;;;;;52.25;43.72;;;14.90;97.80;;;;;;4950765;29;20074;-87
2022/03/23 07:18:48;;;;;;;58.85;45.55;;;15.30;97.10;;;;;;4954383;29;20047;-88
2022/03/23 07:21:13;;;;;;;54.00;44.25;;;15.00;96.40;;;;;;4950432;29;20394;-88
2022/03/23 07:23:39;;;;;;;49.15;42.75;;;14.90;97.00;;;;;;4946747;29;20058;-87
2022/03/23 07:26:06;;;;;;;53.45;44.78;;;14.60;96.40;;;;;;4955367;29;20046;-87
2022/03/23 07:28:32;;;;;;;50.15;44.40;;;14.50;96.90;;;;;;4955405;29;20114;-87
2022/03/23 07:30:58;;;;;;;50.25;42.40;;;14.50;98.20;;;;;;4955104;29;20043;-88
2022/03/23 07:33:24;;;;;;;49.78;42.92;;;14.70;98.30;;;;;;4954436;29;20074;-88
2022/03/23 07:35:49;;;;;;;49.38;42.92;;;15.20;98.10;;;;;;4921891;29;20047;-88
2022/03/23 07:38:15;;;;;;;47.13;40.38;;;15.30;97.80;;;;;;4933630;29;20076;-88
2022/03/23 07:40:41;;;;;;;50.63;41.45;;;14.80;98.20;;;;;;4935686;29;20392;-89
2022/03/23 07:43:07;;;;;;;47.00;40.10;;;14.40;98.50;;;;;;4938462;29;20071;-88
2022/03/23 07:45:33;;;;;;;49.17;39.83;;;13.50;98.30;;;;;;4955649;28;20043;-88
2022/03/23 07:47:59;;;;;;;68.28;40.22;;;13.30;99.90;;;;;;4955906;29;20043;-87
2022/03/23 07:50:25;;;;;;;50.08;38.60;;;13.20;99.90;;;;;;4938453;29;20078;-88
2022/03/23 07:52:51;;;;;;;48.08;36.65;;;13.10;99.90;;;;;;4956005;29;20057;-88
2022/03/23 07:55:17;;;;;;;45.22;37.33;;;12.90;99.90;;;;;;4954651;29;20110;-88
2022/03/23 07:57:42;;;;;;;42.03;36.33;;;12.30;99.90;;;;;;4943622;29;20474;-88
2022/03/23 08:00:09;;;;;;;41.80;36.22;;;12.00;99.90;;;;;;4945530;29;20045;-88
2022/03/23 08:02:34;;;;;;;45.78;35.10;;;12.00;99.90;;;;;;4938819;29;20051;-87
2022/03/23 08:05:00;;;;;;;45.72;32.47;;;12.00;99.90;;;;;;4953870;29;20135;-87
2022/03/23 08:07:25;;;;;;;40.30;33.45;;;12.00;99.90;;;;;;4953036;29;20042;-85
2022/03/23 08:09:51;;;;;;;40.15;33.20;;;12.20;99.90;;;;;;4946241;29;20039;-87
2022/03/23 08:12:17;;;;;;;42.78;32.50;;;12.20;99.90;;;;;;4954145;29;20094;-88
2022/03/23 08:14:44;;;;;;;45.75;33.17;;;12.20;99.90;;;;;;4935980;29;20102;-87
2022/03/23 08:17:10;;;;;;;37.20;30.83;;;12.30;99.90;;;;;;4952176;29;20058;-87
2022/03/23 08:19:36;;;;;;;40.17;32.78;;;12.30;99.90;;;;;;4943464;29;20397;-88
2022/03/23 08:22:02;;;;;;;40.92;32.40;;;12.40;99.90;;;;;;4952448;29;20035;-87
2022/03/23 08:24:28;;;;;;;39.95;32.85;;;12.40;99.80;;;;;;4954211;29;20400;-88
2022/03/23 08:26:53;;;;;;;37.28;31.75;;;12.50;99.80;;;;;;4953858;29;20044;-87
2022/03/23 08:29:19;;;;;;;37.80;30.95;;;12.50;99.70;;;;;;4954114;29;20043;-88
2022/03/23 08:31:46;;;;;;;32.85;27.50;;;12.50;97.10;;;;;;4954378;29;20047;-88
2022/03/23 08:34:12;;;;;;;29.70;25.13;;;12.70;99.50;;;;;;4937526;29;20396;-86
2022/03/23 08:36:38;;;;;;;26.63;23.48;;;12.90;99.60;;;;;;4953513;29;20135;-86
2022/03/23 08:39:04;;;;;;;28.42;25.33;;;13.10;98.00;;;;;;4952351;29;20083;-85
2022/03/23 08:41:30;;;;;;;27.75;23.98;;;13.20;96.50;;;;;;4953425;29;20122;-85
2022/03/23 08:43:55;;;;;;;26.48;23.52;;;13.40;89.20;;;;;;4938290;29;20712;-86
2022/03/23 08:46:21;;;;;;;29.10;23.27;;;13.60;96.50;;;;;;4934453;29;20103;-87
2022/03/23 08:48:49;;;;;;;24.67;21.40;;;13.70;80.10;;;;;;4949893;29;20418;-87
2022/03/23 08:51:14;;;;;;;23.90;21.17;;;13.70;77.90;;;;;;4939183;29;20047;-87
2022/03/23 08:53:42;;;;;;;23.48;21.05;;;13.90;73.10;;;;;;4956051;29;20043;-86
2022/03/23 08:56:11;;;;;;;25.17;20.10;;;14.10;83.10;;;;;;4955146;29;20050;-86
2022/03/23 08:58:47;;;;;;;25.25;19.27;;;14.20;73.40;;;;;;4954029;29;20138;-85
2022/03/23 09:01:14;;;;;;;21.45;19.25;;;14.30;92.20;;;;;;4955308;29;20047;-87
2022/03/23 09:03:41;;;;;;;24.00;19.40;;;14.50;93.20;;;;;;4955394;29;20043;-86
2022/03/23 09:06:06;;;;;;;24.17;19.65;;;14.60;93.30;;;;;;4955758;29;20051;-86
2022/03/23 09:08:32;;;;;;;20.55;18.45;;;14.70;91.80;;;;;;4953593;29;20086;-86
2022/03/23 09:10:59;;;;;;;22.05;18.88;;;14.80;67.80;;;;;;4955067;29;20035;-87
2022/03/23 09:13:24;;;;;;;20.75;18.55;;;15.00;81.90;;;;;;4955075;29;20126;-86
2022/03/23 09:15:50;;;;;;;25.80;19.50;;;15.10;89.50;;;;;;4953338;29;20174;-86
2022/03/23 09:18:16;;;;;;;20.92;18.35;;;15.20;58.90;;;;;;4955653;29;20126;-86
2022/03/23 09:20:41;;;;;;;21.98;18.75;;;15.30;79.90;;;;;;4956066;29;20449;-86
2022/03/23 09:23:08;;;;;;;26.15;17.58;;;15.40;83.50;;;;;;4939852;29;20103;-86
2022/03/23 09:25:33;;;;;;;24.48;18.90;;;15.50;84.60;;;;;;4955800;29;20075;-86
2022/03/23 09:27:59;;;;;;;19.60;17.60;;;15.60;85.20;;;;;;4937730;29;20121;-87
2022/03/23 09:30:25;;;;;;;21.35;18.70;;;15.70;79.00;;;;;;4952798;29;20054;-86
2022/03/23 09:32:50;;;;;;;21.55;19.17;;;15.70;71.00;;;;;;4944470;29;20050;-86
2022/03/23 09:35:16;;;;;;;21.42;18.25;;;15.80;65.90;;;;;;4955862;29;20043;-86
2022/03/23 09:37:49;;;;;;;20.58;18.25;;;15.90;61.90;;;;;;4955998;29;20066;-86
2022/03/23 09:40:27;;;;;;;22.00;19.70;;;16.00;70.50;;;;;;4956163;29;20055;-86
2022/03/23 09:43:00;;;;;;;23.42;18.95;;;16.00;55.90;;;;;;4953000;29;20054;-86
2022/03/23 09:48:09;;;;;;;21.52;19.42;;;16.20;67.70;;;;;;4951272;29;20052;-86
2022/03/23 09:50:36;;;;;;;21.20;18.83;;;16.20;57.90;;;;;;4926201;29;20091;-87
2022/03/23 09:53:03;;;;;;;22.00;19.70;;;16.20;53.70;;;;;;4936583;29;20043;-86
2022/03/23 09:55:29;;;;;;;20.48;18.45;;;16.30;65.30;;;;;;4939965;29;20074;-86
2022/03/23 09:57:55;;;;;;;20.55;18.42;;;16.40;62.60;;;;;;4955210;29;20485;-86
2022/03/23 10:00:21;;;;;;;18.73;16.92;;;16.40;56.80;;;;;;4947152;29;20502;-87
2022/03/23 10:03:11;;;;;;;18.83;16.83;;;16.40;53.90;;;;;;4954887;28;20081;-86
2022/03/23 10:06:13;;;;;;;19.25;17.30;;;16.50;50.50;;;;;;4940467;29;20053;-87
2022/03/23 10:08:48;;;;;;;17.95;16.25;;;16.60;53.30;;;;;;4944797;29;20078;-86
2022/03/23 10:11:51;;;;;;;17.58;15.93;;;16.70;55.20;;;;;;4954114;29;20047;-86
2022/03/23 10:14:55;;;;;;;17.85;15.55;;;16.70;53.90;;;;;;4955986;29;20050;-86
2022/03/23 10:17:48;;;;;;;17.20;15.50;;;16.70;56.20;;;;;;4952573;29;20039;-86
2022/03/23 10:20:14;;;;;;;18.10;16.25;;;16.80;59.60;;;;;;4954708;29;20366;-87
2022/03/23 10:22:51;;;;;;;16.52;14.93;;;16.80;48.80;;;;;;4953398;29;20047;-85
2022/03/23 10:25:19;;;;;;;17.65;15.15;;;16.90;51.30;;;;;;4954630;29;20170;-86
2022/03/23 10:27:46;;;;;;;16.55;14.70;;;17.00;45.90;;;;;;4938876;29;20035;-86
2022/03/23 10:30:14;;;;;;;16.42;14.77;;;17.10;47.20;;;;;;4955547;29;20493;-86
2022/03/23 10:32:43;;;;;;;17.27;15.60;;;17.10;54.80;;;;;;4933971;29;20169;-86
2022/03/23 10:35:14;;;;;;;19.05;15.93;;;17.10;45.20;;;;;;4951454;29;20047;-85
2022/03/23 10:37:39;;;;;;;18.17;16.27;;;17.30;56.00;;;;;;4952842;29;20051;-85
2022/03/23 10:40:12;;;;;;;16.48;14.70;;;17.30;51.10;;;;;;4950620;29;20063;-86
2022/03/23 10:42:40;;;;;;;19.27;15.63;;;17.40;49.70;;;;;;4938644;29;20047;-85
2022/03/23 10:45:16;;;;;;;17.25;15.40;;;17.40;55.40;;;;;;4955447;29;20508;-85
2022/03/23 10:47:44;;;;;;;16.80;14.63;;;17.50;53.30;;;;;;4950503;29;20452;-85
2022/03/23 10:50:17;;;;;;;19.25;14.82;;;17.50;48.80;;;;;;4939763;29;20385;-85
2022/03/23 10:53:03;;;;;;;17.45;14.32;;;17.60;51.60;;;;;;4955929;29;20058;-85
2022/03/23 10:55:47;;;;;;;17.17;12.80;;;17.70;53.70;;;;;;4950444;28;20054;-84
2022/03/23 10:58:12;;;;;;;17.13;13.90;;;17.70;53.00;;;;;;4944602;29;20481;-84
2022/03/23 11:00:39;;;;;;;17.70;12.98;;;17.70;50.20;;;;;;4948169;29;20054;-84
2022/03/23 11:03:08;;;;;;;18.95;14.65;;;17.90;51.60;;;;;;4952117;29;20043;-84
2022/03/23 11:05:38;;;;;;;15.93;14.25;;;18.00;53.70;;;;;;4949041;29;20133;-84
2022/03/23 11:08:25;;;;;;;17.20;14.55;;;18.00;55.00;;;;;;4953033;29;20148;-84
2022/03/23 11:16:27;;;;;;;15.65;12.48;;;17.90;47.30;;;;;;4947627;29;20134;-85
2022/03/23 11:18:57;;;;;;;17.80;12.50;;;18.00;52.50;;;;;;4955161;29;20389;-85
2022/03/23 11:21:23;;;;;;;18.13;12.70;;;18.10;51.90;;;;;;4953531;29;20039;-84
2022/03/23 11:23:49;;;;;;;20.13;12.18;;;18.10;51.20;;;;;;4955274;29;20039;-85
2022/03/23 11:26:14;;;;;;;18.65;11.38;;;18.10;51.00;;;;;;4954690;29;20051;-84
2022/03/23 11:28:43;;;;;;;14.13;12.60;;;18.20;47.60;;;;;;4938845;29;20043;-85
2022/03/23 11:31:10;;;;;;;16.95;12.13;;;18.20;48.50;;;;;;4954546;29;20043;-85
2022/03/23 11:33:37;;;;;;;21.98;11.80;;;18.10;47.40;;;;;;4941997;29;20073;-85
2022/03/23 11:36:12;;;;;;;16.48;12.20;;;18.20;49.10;;;;;;4953882;29;20031;-85
2022/03/23 11:38:39;;;;;;;18.80;12.20;;;18.20;46.10;;;;;;4954561;29;20170;-82
2022/03/23 11:41:06;;;;;;;15.65;10.95;;;18.30;51.70;;;;;;4956001;28;20035;-84
2022/03/23 11:43:34;;;;;;;17.70;11.93;;;18.20;43.90;;;;;;4953821;29;20047;-83
2022/03/23 11:46:01;;;;;;;24.15;11.10;;;18.20;50.60;;;;;;4953641;29;20058;-83
2022/03/23 11:48:53;;;;;;;20.02;12.00;;;18.10;45.90;;;;;;4948936;29;20046;-84
2022/03/23 11:51:47;;;;;;;19.23;10.82;;;18.20;44.90;;;;;;4954340;28;20122;-83
2022/03/23 11:54:18;;;;;;;20.20;11.10;;;18.30;49.00;;;;;;4948195;29;20342;-83
2022/03/23 11:56:46;;;;;;;17.40;10.70;;;18.30;48.70;;;;;;4942297;29;21981;-83
2022/03/23 11:59:27;;;;;;;15.65;11.13;;;18.30;45.60;;;;;;4954485;29;20042;-83
2022/03/23 12:01:54;;;;;;;19.98;11.35;;;18.10;41.50;;;;;;4955043;29;20125;-83
2022/03/23 12:04:22;;;;;;;18.00;12.57;;;18.10;42.90;;;;;;4953947;29;20089;-84
2022/03/23 12:07:09;;;;;;;20.00;13.30;;;18.20;45.00;;;;;;4938697;29;20047;-83
2022/03/23 12:09:36;;;;;;;15.82;11.07;;;18.30;49.90;;;;;;4954163;29;20043;-83
2022/03/23 12:12:13;;;;;;;20.60;9.95;;;18.20;45.50;;;;;;4950973;29;20047;-83
2022/03/23 12:14:40;;;;;;;18.85;10.25;;;18.30;47.70;;;;;;4931344;29;20121;-84
2022/03/23 12:17:18;;;;;;;14.88;9.10;;;18.30;50.10;;;;;;4938031;29;20047;-84
2022/03/23 12:19:53;;;;;;;24.45;9.80;;;18.40;47.60;;;;;;4938436;29;20199;-83
2022/03/23 12:22:32;;;;;;;18.08;11.40;;;18.60;46.30;;;;;;4954027;29;20035;-83
2022/03/23 12:25:20;;;;;;;19.48;9.88;;;18.60;53.20;;;;;;4954114;28;20067;-84
2022/03/23 12:27:45;;;;;;;16.40;10.07;;;18.50;45.60;;;;;;4958226;29;20059;-84
2022/03/23 12:30:38;;;;;;;15.15;9.95;;;18.60;51.00;;;;;;4958011;29;20039;-83
2022/03/23 12:33:12;;;;;;;16.35;9.40;;;18.50;43.60;;;;;;4956290;29;20113;-84
2022/03/23 12:35:39;;;;;;;18.48;9.93;;;18.60;49.00;;;;;;4932710;29;20047;-84
2022/03/23 12:38:20;;;;;;;13.07;9.40;;;18.40;43.10;;;;;;4956558;29;20071;-85
2022/03/23 12:40:47;;;;;;;;;;;18.40;44.20;;;;;;4952930;29;20055;-85
2022/03/23 12:43:32;;;;;;;17.67;9.13;;;18.70;49.70;;;;;;4941575;29;20446;-84
2022/03/23 12:45:58;;;;;;;15.77;8.60;;;18.80;49.60;;;;;;4956190;29;20470;-83
2022/03/23 12:59:48;;;;;;;17.13;6.75;;;18.80;47.20;;;;;;4954527;29;20394;-82
2022/03/23 13:02:28;;;;;;;19.83;7.60;;;18.80;42.10;;;;;;4956881;29;20228;-83
2022/03/23 13:04:55;;;;;;;20.00;8.50;;;18.90;51.50;;;;;;4957177;29;20076;-83
2022/03/23 13:07:27;;;;;;;18.23;8.85;;;18.90;49.00;;;;;;4956483;29;20050;-83